sensor_id;sensor_type;location;lat;lon;timestamp;pressure;altitude;pressure_sealevel;temperature;humidity
22662;BME280;11497;52.222;21.246;2023-11-21T00:00:56;99721.75;;;-0.84;86.88
22662;BME280;11497;52.222;21.246;2023-11-21T00:03:41;99717.25;;;-0.91;87.08
22662;BME280;11497;52.222;21.246;2023-11-21T00:06:09;99709.63;;;-0.92;87.24
22662;BME280;11497;52.222;21.246;2023-11-21T00:08:38;99703.75;;;-0.91;86.62
22662;BME280;11497;52.222;21.246;2023-11-21T00:11:05;99711.78;;;-1.02;87.50
22662;BME280;11497;52.222;21.246;2023-11-21T00:13:33;99708.94;;;-0.88;87.17
22662;BME280;11497;52.222;21.246;2023-11-21T00:16:01;99713.91;;;-0.90;87.18
22662;BME280;11497;52.222;21.246;2023-11-21T00:18:29;99713.28;;;-0.84;85.89
22662;BME280;11497;52.222;21.246;2023-11-21T00:20:57;99712.81;;;-0.97;86.16
22662;BME280;11497;52.222;21.246;2023-11-21T00:23:26;99720.75;;;-1.10;86.63
22662;BME280;11497;52.222;21.246;2023-11-21T00:25:54;99728.25;;;-1.11;87.09
22662;BME280;11497;52.222;21.246;2023-11-21T00:28:22;99735.78;;;-1.13;86.50
22662;BME280;11497;52.222;21.246;2023-11-21T00:30:50;99736.63;;;-1.13;86.83
22662;BME280;11497;52.222;21.246;2023-11-21T00:33:18;99741.41;;;-1.19;86.94
22662;BME280;11497;52.222;21.246;2023-11-21T00:35:46;99739.91;;;-1.15;87.37
22662;BME280;11497;52.222;21.246;2023-11-21T00:38:14;99748.75;;;-1.04;86.40
22662;BME280;11497;52.222;21.246;2023-11-21T00:40:42;99747.50;;;-1.14;86.49
22662;BME280;11497;52.222;21.246;2023-11-21T00:43:10;99751.00;;;-1.11;86.31
22662;BME280;11497;52.222;21.246;2023-11-21T00:45:37;99752.81;;;-1.07;86.09
22662;BME280;11497;52.222;21.246;2023-11-21T00:48:08;99751.22;;;-1.26;86.25
22662;BME280;11497;52.222;21.246;2023-11-21T00:50:36;99749.13;;;-1.37;86.94
22662;BME280;11497;52.222;21.246;2023-11-21T00:53:03;99755.34;;;-1.28;86.91
22662;BME280;11497;52.222;21.246;2023-11-21T00:55:31;99758.50;;;-1.34;86.89
22662;BME280;11497;52.222;21.246;2023-11-21T00:57:59;99756.22;;;-1.28;87.04
22662;BME280;11497;52.222;21.246;2023-11-21T01:00:27;99761.69;;;-1.38;87.46
22662;BME280;11497;52.222;21.246;2023-11-21T01:02:55;99761.81;;;-1.35;87.02
22662;BME280;11497;52.222;21.246;2023-11-21T01:05:24;99760.22;;;-1.33;86.61
22662;BME280;11497;52.222;21.246;2023-11-21T01:07:52;99764.91;;;-1.42;87.12
22662;BME280;11497;52.222;21.246;2023-11-21T01:10:21;99767.56;;;-1.39;87.39
22662;BME280;11497;52.222;21.246;2023-11-21T01:12:49;99764.50;;;-1.52;86.62
22662;BME280;11497;52.222;21.246;2023-11-21T01:15:17;99766.72;;;-1.59;87.47
22662;BME280;11497;52.222;21.246;2023-11-21T01:17:45;99764.91;;;-1.62;87.49
22662;BME280;11497;52.222;21.246;2023-11-21T01:20:13;99772.13;;;-1.50;87.24
22662;BME280;11497;52.222;21.246;2023-11-21T01:22:42;99772.81;;;-1.54;87.00
22662;BME280;11497;52.222;21.246;2023-11-21T01:25:10;99769.88;;;-1.44;87.00
22662;BME280;11497;52.222;21.246;2023-11-21T01:27:39;99772.06;;;-1.52;86.73
22662;BME280;11497;52.222;21.246;2023-11-21T01:30:07;99771.97;;;-1.55;87.06
22662;BME280;11497;52.222;21.246;2023-11-21T01:32:37;99772.06;;;-1.52;87.01
22662;BME280;11497;52.222;21.246;2023-11-21T01:35:05;99774.94;;;-1.44;86.76
22662;BME280;11497;52.222;21.246;2023-11-21T01:37:34;99774.06;;;-1.44;86.27
22662;BME280;11497;52.222;21.246;2023-11-21T01:40:02;99772.06;;;-1.52;86.82
22662;BME280;11497;52.222;21.246;2023-11-21T01:42:33;99770.94;;;-1.58;87.10
22662;BME280;11497;52.222;21.246;2023-11-21T01:45:02;99772.53;;;-1.60;87.67
22662;BME280;11497;52.222;21.246;2023-11-21T01:47:33;99776.84;;;-1.38;86.97
22662;BME280;11497;52.222;21.246;2023-11-21T01:50:02;99783.03;;;-1.51;86.35
22662;BME280;11497;52.222;21.246;2023-11-21T01:52:32;99784.19;;;-1.43;86.57
22662;BME280;11497;52.222;21.246;2023-11-21T01:55:01;99782.09;;;-1.53;86.84
22662;BME280;11497;52.222;21.246;2023-11-21T01:57:30;99780.38;;;-1.54;87.11
22662;BME280;11497;52.222;21.246;2023-11-21T01:59:59;99779.63;;;-1.52;87.40
22662;BME280;11497;52.222;21.246;2023-11-21T02:02:39;99787.09;;;-1.55;87.46
22662;BME280;11497;52.222;21.246;2023-11-21T02:05:07;99786.41;;;-1.51;87.44
22662;BME280;11497;52.222;21.246;2023-11-21T02:07:36;99796.59;;;-1.49;87.05
22662;BME280;11497;52.222;21.246;2023-11-21T02:10:06;99784.75;;;-1.50;87.53
22662;BME280;11497;52.222;21.246;2023-11-21T02:12:35;99791.69;;;-1.46;86.29
22662;BME280;11497;52.222;21.246;2023-11-21T02:15:03;99784.88;;;-1.47;86.35
22662;BME280;11497;52.222;21.246;2023-11-21T02:17:43;99786.50;;;-1.49;86.17
22662;BME280;11497;52.222;21.246;2023-11-21T02:20:13;99790.47;;;-1.54;86.30
22662;BME280;11497;52.222;21.246;2023-11-21T02:22:56;99790.91;;;-1.43;85.58
22662;BME280;11497;52.222;21.246;2023-11-21T02:25:30;99788.03;;;-1.53;85.47
22662;BME280;11497;52.222;21.246;2023-11-21T02:28:00;99789.50;;;-1.58;85.85
22662;BME280;11497;52.222;21.246;2023-11-21T02:30:29;99793.66;;;-1.58;86.03
22662;BME280;11497;52.222;21.246;2023-11-21T02:33:00;99799.66;;;-1.56;85.77
22662;BME280;11497;52.222;21.246;2023-11-21T02:35:29;99789.09;;;-1.67;86.33
22662;BME280;11497;52.222;21.246;2023-11-21T02:38:00;99795.59;;;-1.72;86.83
22662;BME280;11497;52.222;21.246;2023-11-21T02:40:28;99797.53;;;-1.66;87.25
22662;BME280;11497;52.222;21.246;2023-11-21T02:42:57;99798.69;;;-1.58;86.66
22662;BME280;11497;52.222;21.246;2023-11-21T02:45:27;99804.22;;;-1.67;86.34
22662;BME280;11497;52.222;21.246;2023-11-21T02:47:55;99802.53;;;-1.68;86.61
22662;BME280;11497;52.222;21.246;2023-11-21T02:50:26;99802.59;;;-1.66;86.78
22662;BME280;11497;52.222;21.246;2023-11-21T02:52:55;99807.88;;;-1.60;86.62
22662;BME280;11497;52.222;21.246;2023-11-21T02:55:25;99794.94;;;-1.68;86.72
22662;BME280;11497;52.222;21.246;2023-11-21T02:57:54;99805.34;;;-1.60;86.75
22662;BME280;11497;52.222;21.246;2023-11-21T03:00:24;99802.44;;;-1.70;87.29
22662;BME280;11497;52.222;21.246;2023-11-21T03:02:55;99811.28;;;-1.60;87.33
22662;BME280;11497;52.222;21.246;2023-11-21T03:05:23;99811.66;;;-1.51;86.21
22662;BME280;11497;52.222;21.246;2023-11-21T03:07:51;99812.84;;;-1.62;85.82
22662;BME280;11497;52.222;21.246;2023-11-21T03:10:19;99808.75;;;-1.60;85.79
22662;BME280;11497;52.222;21.246;2023-11-21T03:12:47;99816.44;;;-1.57;85.41
22662;BME280;11497;52.222;21.246;2023-11-21T03:15:15;99816.75;;;-1.70;85.95
22662;BME280;11497;52.222;21.246;2023-11-21T03:17:43;99815.84;;;-1.71;86.05
22662;BME280;11497;52.222;21.246;2023-11-21T03:20:11;99821.34;;;-1.79;86.54
22662;BME280;11497;52.222;21.246;2023-11-21T03:22:41;99824.56;;;-1.83;87.32
22662;BME280;11497;52.222;21.246;2023-11-21T03:25:09;99826.28;;;-1.82;88.05
22662;BME280;11497;52.222;21.246;2023-11-21T03:27:39;99825.69;;;-1.77;88.00
22662;BME280;11497;52.222;21.246;2023-11-21T03:30:09;99828.59;;;-1.67;87.81
22662;BME280;11497;52.222;21.246;2023-11-21T03:32:37;99837.91;;;-1.66;87.09
22662;BME280;11497;52.222;21.246;2023-11-21T03:35:06;99833.66;;;-1.67;86.91
22662;BME280;11497;52.222;21.246;2023-11-21T03:37:35;99836.72;;;-1.75;87.19
22662;BME280;11497;52.222;21.246;2023-11-21T03:40:03;99839.22;;;-1.75;87.67
22662;BME280;11497;52.222;21.246;2023-11-21T03:42:32;99830.81;;;-1.75;87.51
22662;BME280;11497;52.222;21.246;2023-11-21T03:45:00;99838.56;;;-1.71;87.41
22662;BME280;11497;52.222;21.246;2023-11-21T03:47:28;99835.78;;;-1.77;87.26
22662;BME280;11497;52.222;21.246;2023-11-21T03:49:56;99837.09;;;-1.65;87.46
22662;BME280;11497;52.222;21.246;2023-11-21T03:52:25;99840.75;;;-1.78;87.17
22662;BME280;11497;52.222;21.246;2023-11-21T03:54:53;99845.00;;;-1.77;88.03
22662;BME280;11497;52.222;21.246;2023-11-21T03:57:21;99856.50;;;-1.84;88.13
22662;BME280;11497;52.222;21.246;2023-11-21T03:59:49;99854.75;;;-1.85;88.48
22662;BME280;11497;52.222;21.246;2023-11-21T04:02:17;99853.91;;;-1.85;88.12
22662;BME280;11497;52.222;21.246;2023-11-21T04:04:45;99854.63;;;-1.88;88.35
22662;BME280;11497;52.222;21.246;2023-11-21T04:07:13;99865.84;;;-1.81;88.38
22662;BME280;11497;52.222;21.246;2023-11-21T04:09:41;99859.28;;;-1.78;88.01
22662;BME280;11497;52.222;21.246;2023-11-21T04:12:09;99857.16;;;-1.68;87.87
22662;BME280;11497;52.222;21.246;2023-11-21T04:14:38;99854.44;;;-1.73;87.88
22662;BME280;11497;52.222;21.246;2023-11-21T04:17:06;99860.41;;;-1.71;87.86
22662;BME280;11497;52.222;21.246;2023-11-21T04:19:34;99866.75;;;-1.61;87.96
22662;BME280;11497;52.222;21.246;2023-11-21T04:22:02;99865.19;;;-1.77;87.29
22662;BME280;11497;52.222;21.246;2023-11-21T04:24:30;99865.25;;;-1.76;87.73
22662;BME280;11497;52.222;21.246;2023-11-21T04:26:58;99874.69;;;-1.72;87.85
22662;BME280;11497;52.222;21.246;2023-11-21T04:29:25;99872.25;;;-1.70;87.65
22662;BME280;11497;52.222;21.246;2023-11-21T04:31:53;99866.69;;;-1.81;87.94
22662;BME280;11497;52.222;21.246;2023-11-21T04:34:21;99873.13;;;-1.88;88.67
22662;BME280;11497;52.222;21.246;2023-11-21T04:36:50;99878.19;;;-1.88;88.60
22662;BME280;11497;52.222;21.246;2023-11-21T04:39:18;99873.28;;;-1.84;88.52
22662;BME280;11497;52.222;21.246;2023-11-21T04:41:46;99868.69;;;-1.93;89.09
22662;BME280;11497;52.222;21.246;2023-11-21T04:44:13;99877.59;;;-1.82;89.17
22662;BME280;11497;52.222;21.246;2023-11-21T04:46:41;99874.72;;;-1.90;89.55
22662;BME280;11497;52.222;21.246;2023-11-21T04:49:09;99873.13;;;-1.88;89.66
22662;BME280;11497;52.222;21.246;2023-11-21T04:51:38;99882.19;;;-1.73;89.57
22662;BME280;11497;52.222;21.246;2023-11-21T04:54:06;99884.44;;;-1.79;88.97
22662;BME280;11497;52.222;21.246;2023-11-21T04:56:34;99884.38;;;-1.81;89.03
22662;BME280;11497;52.222;21.246;2023-11-21T04:59:02;99888.09;;;-1.92;89.03
22662;BME280;11497;52.222;21.246;2023-11-21T05:01:30;99888.22;;;-1.89;89.25
22662;BME280;11497;52.222;21.246;2023-11-21T05:03:57;99887.97;;;-1.76;88.21
22662;BME280;11497;52.222;21.246;2023-11-21T05:06:26;99887.50;;;-1.86;88.51
22662;BME280;11497;52.222;21.246;2023-11-21T05:08:53;99888.00;;;-1.94;88.30
22662;BME280;11497;52.222;21.246;2023-11-21T05:11:29;99890.53;;;-1.94;88.87
22662;BME280;11497;52.222;21.246;2023-11-21T05:13:56;99911.31;;;-1.99;88.82
22662;BME280;11497;52.222;21.246;2023-11-21T05:16:26;99906.66;;;-1.90;89.17
22662;BME280;11497;52.222;21.246;2023-11-21T05:18:57;99910.56;;;-1.79;88.87
22662;BME280;11497;52.222;21.246;2023-11-21T05:21:28;99923.41;;;-1.92;89.16
22662;BME280;11497;52.222;21.246;2023-11-21T05:24:00;99921.59;;;-1.95;89.28
22662;BME280;11497;52.222;21.246;2023-11-21T05:26:28;99913.81;;;-1.99;89.52
22662;BME280;11497;52.222;21.246;2023-11-21T05:28:56;99915.16;;;-1.88;89.68
22662;BME280;11497;52.222;21.246;2023-11-21T05:31:24;99918.06;;;-1.80;88.42
22662;BME280;11497;52.222;21.246;2023-11-21T05:33:52;99912.84;;;-1.83;88.09
22662;BME280;11497;52.222;21.246;2023-11-21T05:36:20;99918.44;;;-1.91;88.89
22662;BME280;11497;52.222;21.246;2023-11-21T05:38:48;99924.25;;;-1.92;88.27
22662;BME280;11497;52.222;21.246;2023-11-21T05:41:16;99934.28;;;-1.93;88.21
22662;BME280;11497;52.222;21.246;2023-11-21T05:43:44;99939.25;;;-1.95;88.38
22662;BME280;11497;52.222;21.246;2023-11-21T05:46:12;99936.56;;;-1.98;87.99
22662;BME280;11497;52.222;21.246;2023-11-21T05:48:41;99936.56;;;-1.98;88.90
22662;BME280;11497;52.222;21.246;2023-11-21T05:51:09;99940.13;;;-1.94;88.94
22662;BME280;11497;52.222;21.246;2023-11-21T05:53:40;99935.72;;;-1.98;88.43
22662;BME280;11497;52.222;21.246;2023-11-21T05:56:08;99941.84;;;-1.93;88.22
22662;BME280;11497;52.222;21.246;2023-11-21T05:58:36;99941.56;;;-1.99;88.90
22662;BME280;11497;52.222;21.246;2023-11-21T06:01:06;99944.34;;;-1.93;88.60
22662;BME280;11497;52.222;21.246;2023-11-21T06:03:38;99954.22;;;-1.98;88.61
22662;BME280;11497;52.222;21.246;2023-11-21T06:06:07;99955.88;;;-1.98;88.79
22662;BME280;11497;52.222;21.246;2023-11-21T06:08:35;99950.47;;;-1.88;88.33
22662;BME280;11497;52.222;21.246;2023-11-21T06:11:03;99956.03;;;-1.95;88.09
22662;BME280;11497;52.222;21.246;2023-11-21T06:13:30;99957.47;;;-2.00;88.66
22662;BME280;11497;52.222;21.246;2023-11-21T06:15:59;99957.91;;;-1.91;88.63
22662;BME280;11497;52.222;21.246;2023-11-21T06:18:27;99963.25;;;-1.85;87.98
22662;BME280;11497;52.222;21.246;2023-11-21T06:20:56;99972.34;;;-1.89;87.52
22662;BME280;11497;52.222;21.246;2023-11-21T06:23:23;99969.22;;;-1.83;87.64
22662;BME280;11497;52.222;21.246;2023-11-21T06:25:51;99976.44;;;-1.91;87.35
22662;BME280;11497;52.222;21.246;2023-11-21T06:28:20;99973.69;;;-1.95;87.33
22662;BME280;11497;52.222;21.246;2023-11-21T06:30:48;99977.00;;;-1.96;87.66
22662;BME280;11497;52.222;21.246;2023-11-21T06:33:18;99979.53;;;-1.96;87.56
22662;BME280;11497;52.222;21.246;2023-11-21T06:35:46;99977.81;;;-1.97;87.60
22662;BME280;11497;52.222;21.246;2023-11-21T06:38:14;99980.13;;;-1.84;87.05
22662;BME280;11497;52.222;21.246;2023-11-21T06:40:42;99985.16;;;-1.84;86.78
22662;BME280;11497;52.222;21.246;2023-11-21T06:43:10;99980.69;;;-1.90;87.14
22662;BME280;11497;52.222;21.246;2023-11-21T06:45:38;99989.91;;;-1.90;87.16
22662;BME280;11497;52.222;21.246;2023-11-21T06:48:06;99991.78;;;-1.86;86.57
22662;BME280;11497;52.222;21.246;2023-11-21T06:50:34;99996.34;;;-1.79;86.63
22662;BME280;11497;52.222;21.246;2023-11-21T06:53:02;100002.53;;;-1.90;86.90
22662;BME280;11497;52.222;21.246;2023-11-21T06:55:32;100010.03;;;-1.92;87.27
22662;BME280;11497;52.222;21.246;2023-11-21T06:58:00;100009.06;;;-1.76;86.61
22662;BME280;11497;52.222;21.246;2023-11-21T07:00:28;100018.00;;;-1.82;86.73
22662;BME280;11497;52.222;21.246;2023-11-21T07:02:57;100012.44;;;-1.57;85.90
22662;BME280;11497;52.222;21.246;2023-11-21T07:05:25;100014.41;;;-1.70;85.90
22662;BME280;11497;52.222;21.246;2023-11-21T07:07:53;100012.41;;;-1.77;87.07
22662;BME280;11497;52.222;21.246;2023-11-21T07:10:22;100016.88;;;-1.71;86.27
22662;BME280;11497;52.222;21.246;2023-11-21T07:12:50;100020.81;;;-1.58;85.70
22662;BME280;11497;52.222;21.246;2023-11-21T07:15:19;100016.19;;;-1.67;86.00
22662;BME280;11497;52.222;21.246;2023-11-21T07:17:47;100019.16;;;-1.76;86.24
22662;BME280;11497;52.222;21.246;2023-11-21T07:20:16;100017.00;;;-1.68;86.58
22662;BME280;11497;52.222;21.246;2023-11-21T07:22:45;100032.16;;;-1.68;86.32
22662;BME280;11497;52.222;21.246;2023-11-21T07:25:13;100025.44;;;-1.67;86.90
22662;BME280;11497;52.222;21.246;2023-11-21T07:27:41;100029.78;;;-1.65;87.11
22662;BME280;11497;52.222;21.246;2023-11-21T07:30:10;100040.22;;;-1.57;86.44
22662;BME280;11497;52.222;21.246;2023-11-21T07:32:38;100035.81;;;-1.43;85.14
22662;BME280;11497;52.222;21.246;2023-11-21T07:35:08;100034.03;;;-1.46;84.44
22662;BME280;11497;52.222;21.246;2023-11-21T07:37:36;100033.50;;;-1.57;84.53
22662;BME280;11497;52.222;21.246;2023-11-21T07:40:05;100038.28;;;-1.63;85.21
22662;BME280;11497;52.222;21.246;2023-11-21T07:42:36;100041.09;;;-1.75;85.65
22662;BME280;11497;52.222;21.246;2023-11-21T07:45:06;100040.78;;;-1.81;86.61
22662;BME280;11497;52.222;21.246;2023-11-21T07:47:34;100037.28;;;-1.66;86.11
22662;BME280;11497;52.222;21.246;2023-11-21T07:50:04;100044.25;;;-1.61;86.23
22662;BME280;11497;52.222;21.246;2023-11-21T07:52:32;100039.56;;;-1.53;86.27
22662;BME280;11497;52.222;21.246;2023-11-21T07:55:00;100038.47;;;-1.58;85.72
22662;BME280;11497;52.222;21.246;2023-11-21T07:57:29;100043.41;;;-1.61;86.31
22662;BME280;11497;52.222;21.246;2023-11-21T07:59:57;100040.44;;;-1.71;86.55
22662;BME280;11497;52.222;21.246;2023-11-21T08:02:25;100035.53;;;-1.49;86.92
22662;BME280;11497;52.222;21.246;2023-11-21T08:04:54;100037.91;;;-1.53;86.86
22662;BME280;11497;52.222;21.246;2023-11-21T08:07:25;100041.28;;;-1.52;86.40
22662;BME280;11497;52.222;21.246;2023-11-21T08:09:53;100041.16;;;-1.55;86.34
22662;BME280;11497;52.222;21.246;2023-11-21T08:12:21;100049.78;;;-1.50;86.42
22662;BME280;11497;52.222;21.246;2023-11-21T08:14:49;100052.31;;;-1.50;86.16
22662;BME280;11497;52.222;21.246;2023-11-21T08:17:17;100057.19;;;-1.55;86.44
22662;BME280;11497;52.222;21.246;2023-11-21T08:19:48;100064.56;;;-1.40;86.95
22662;BME280;11497;52.222;21.246;2023-11-21T08:22:17;100065.38;;;-1.41;86.73
22662;BME280;11497;52.222;21.246;2023-11-21T08:24:45;100068.03;;;-1.38;86.59
22662;BME280;11497;52.222;21.246;2023-11-21T08:27:14;100074.91;;;-1.35;86.13
22662;BME280;11497;52.222;21.246;2023-11-21T08:29:44;100077.13;;;-1.23;85.64
22662;BME280;11497;52.222;21.246;2023-11-21T08:32:12;100077.13;;;-1.23;85.58
22662;BME280;11497;52.222;21.246;2023-11-21T08:34:40;100075.81;;;-1.15;85.46
22662;BME280;11497;52.222;21.246;2023-11-21T08:37:11;100081.56;;;-1.18;85.39
22662;BME280;11497;52.222;21.246;2023-11-21T08:39:40;100085.91;;;-1.15;85.60
22662;BME280;11497;52.222;21.246;2023-11-21T08:42:09;100082.59;;;-1.14;85.41
22662;BME280;11497;52.222;21.246;2023-11-21T08:44:37;100086.09;;;-1.10;84.98
22662;BME280;11497;52.222;21.246;2023-11-21T08:47:07;100087.78;;;-1.11;85.75
22662;BME280;11497;52.222;21.246;2023-11-21T08:49:36;100094.31;;;-0.97;86.10
22662;BME280;11497;52.222;21.246;2023-11-21T08:52:04;100091.84;;;-0.95;85.92
22662;BME280;11497;52.222;21.246;2023-11-21T08:54:33;100088.88;;;-0.86;85.00
22662;BME280;11497;52.222;21.246;2023-11-21T08:57:01;100099.50;;;-0.93;85.23
22662;BME280;11497;52.222;21.246;2023-11-21T08:59:29;100092.22;;;-1.05;85.54
22662;BME280;11497;52.222;21.246;2023-11-21T09:01:57;100098.81;;;-1.09;85.35
22662;BME280;11497;52.222;21.246;2023-11-21T09:04:25;100096.56;;;-1.03;84.82
22662;BME280;11497;52.222;21.246;2023-11-21T09:06:53;100097.28;;;-1.05;85.27
22662;BME280;11497;52.222;21.246;2023-11-21T09:09:21;100099.34;;;-1.16;86.11
22662;BME280;11497;52.222;21.246;2023-11-21T09:11:49;100100.03;;;-1.19;86.69
22662;BME280;11497;52.222;21.246;2023-11-21T09:14:17;100098.09;;;-1.24;86.56
22662;BME280;11497;52.222;21.246;2023-11-21T09:16:45;100105.97;;;-1.18;86.94
22662;BME280;11497;52.222;21.246;2023-11-21T09:19:13;100109.00;;;-1.07;87.08
22662;BME280;11497;52.222;21.246;2023-11-21T09:21:41;100105.59;;;-1.08;86.97
22662;BME280;11497;52.222;21.246;2023-11-21T09:24:09;100113.13;;;-0.90;87.24
22662;BME280;11497;52.222;21.246;2023-11-21T09:26:37;100109.81;;;-0.89;86.96
22662;BME280;11497;52.222;21.246;2023-11-21T09:29:06;100119.34;;;-0.83;87.04
22662;BME280;11497;52.222;21.246;2023-11-21T09:31:36;100113.56;;;-0.81;86.86
22662;BME280;11497;52.222;21.246;2023-11-21T09:34:04;100116.88;;;-0.62;85.68
22662;BME280;11497;52.222;21.246;2023-11-21T09:36:34;100115.03;;;-0.66;85.38
22662;BME280;11497;52.222;21.246;2023-11-21T09:39:02;100112.72;;;-0.62;85.08
22662;BME280;11497;52.222;21.246;2023-11-21T09:41:50;100109.59;;;-0.76;84.40
22662;BME280;11497;52.222;21.246;2023-11-21T09:44:20;100115.56;;;-0.73;84.63
22662;BME280;11497;52.222;21.246;2023-11-21T09:46:52;100117.56;;;-0.66;83.87
22662;BME280;11497;52.222;21.246;2023-11-21T09:49:24;100107.53;;;-0.65;84.48
22662;BME280;11497;52.222;21.246;2023-11-21T09:51:55;100112.09;;;-0.56;84.36
22662;BME280;11497;52.222;21.246;2023-11-21T09:54:26;100116.41;;;-0.53;85.34
22662;BME280;11497;52.222;21.246;2023-11-21T09:56:57;100107.56;;;-0.44;85.13
22662;BME280;11497;52.222;21.246;2023-11-21T09:59:30;100106.09;;;-0.39;84.03
22662;BME280;11497;52.222;21.246;2023-11-21T10:01:58;100105.06;;;-0.44;83.99
22662;BME280;11497;52.222;21.246;2023-11-21T10:04:27;100114.75;;;-0.33;83.19
22662;BME280;11497;52.222;21.246;2023-11-21T10:06:56;100121.88;;;-0.25;82.41
22662;BME280;11497;52.222;21.246;2023-11-21T10:09:25;100124.34;;;-0.26;82.90
22662;BME280;11497;52.222;21.246;2023-11-21T10:11:56;100127.00;;;-0.23;82.85
22662;BME280;11497;52.222;21.246;2023-11-21T10:14:26;100122.56;;;-0.29;83.03
22662;BME280;11497;52.222;21.246;2023-11-21T10:16:57;100127.47;;;-0.32;83.58
22662;BME280;11497;52.222;21.246;2023-11-21T10:19:26;100131.34;;;-0.40;82.46
22662;BME280;11497;52.222;21.246;2023-11-21T10:21:55;100124.97;;;-0.11;81.57
22662;BME280;11497;52.222;21.246;2023-11-21T10:24:25;100136.09;;;-0.07;81.34
22662;BME280;11497;52.222;21.246;2023-11-21T10:26:55;100126.84;;;-0.26;81.91
22662;BME280;11497;52.222;21.246;2023-11-21T10:29:23;100128.19;;;-0.15;81.12
22662;BME280;11497;52.222;21.246;2023-11-21T10:31:51;100132.97;;;-0.21;81.56
22662;BME280;11497;52.222;21.246;2023-11-21T10:34:21;100131.84;;;-0.28;81.57
22662;BME280;11497;52.222;21.246;2023-11-21T10:36:50;100136.00;;;-0.30;81.91
22662;BME280;11497;52.222;21.246;2023-11-21T10:39:19;100136.19;;;-0.25;81.46
22662;BME280;11497;52.222;21.246;2023-11-21T10:41:48;100134.19;;;-0.13;80.98
22662;BME280;11497;52.222;21.246;2023-11-21T10:44:18;100135.38;;;-0.24;81.29
22662;BME280;11497;52.222;21.246;2023-11-21T10:46:52;100135.38;;;-0.24;80.64
22662;BME280;11497;52.222;21.246;2023-11-21T10:49:25;100139.13;;;-0.55;79.90
22662;BME280;11497;52.222;21.246;2023-11-21T10:51:55;100143.97;;;-0.60;80.62
22662;BME280;11497;52.222;21.246;2023-11-21T10:54:24;100138.25;;;-0.55;81.02
22662;BME280;11497;52.222;21.246;2023-11-21T10:57:00;100141.91;;;-0.49;81.91
22662;BME280;11497;52.222;21.246;2023-11-21T10:59:30;100141.31;;;-0.63;81.53
22662;BME280;11497;52.222;21.246;2023-11-21T11:01:59;100148.28;;;-0.57;82.00
22662;BME280;11497;52.222;21.246;2023-11-21T11:04:32;100148.19;;;-0.60;82.28
22662;BME280;11497;52.222;21.246;2023-11-21T11:07:03;100145.84;;;-0.55;81.31
22662;BME280;11497;52.222;21.246;2023-11-21T11:09:33;100147.56;;;-0.54;80.53
22662;BME280;11497;52.222;21.246;2023-11-21T11:12:05;100150.72;;;-0.78;81.68
22662;BME280;11497;52.222;21.246;2023-11-21T11:14:34;100148.72;;;-0.85;81.90
22662;BME280;11497;52.222;21.246;2023-11-21T11:17:02;100146.97;;;-0.49;80.99
22662;BME280;11497;52.222;21.246;2023-11-21T11:19:34;100158.53;;;-0.54;80.96
22662;BME280;11497;52.222;21.246;2023-11-21T11:33:21;100155.91;;;-0.38;80.15
22662;BME280;11497;52.222;21.246;2023-11-21T11:38:45;100167.28;;;-0.47;80.38
22662;BME280;11497;52.222;21.246;2023-11-21T11:41:31;100157.81;;;-0.32;80.53
22662;BME280;11497;52.222;21.246;2023-11-21T11:44:01;100164.03;;;-0.45;80.54
22662;BME280;11497;52.222;21.246;2023-11-21T11:46:42;100169.72;;;-0.49;81.28
22662;BME280;11497;52.222;21.246;2023-11-21T11:49:11;100171.66;;;-0.63;80.63
22662;BME280;11497;52.222;21.246;2023-11-21T11:54:57;100164.44;;;-0.73;82.42
22662;BME280;11497;52.222;21.246;2023-11-21T11:57:29;100172.31;;;-0.67;82.56
22662;BME280;11497;52.222;21.246;2023-11-21T12:00:19;100176.69;;;-0.63;82.46
22662;BME280;11497;52.222;21.246;2023-11-21T12:02:51;100176.28;;;-0.72;82.27
22662;BME280;11497;52.222;21.246;2023-11-21T12:05:21;100177.00;;;-0.74;81.77
22662;BME280;11497;52.222;21.246;2023-11-21T12:07:52;100171.63;;;-0.82;81.86
22662;BME280;11497;52.222;21.246;2023-11-21T12:10:26;100176.78;;;-0.79;82.24
22662;BME280;11497;52.222;21.246;2023-11-21T12:12:55;100182.00;;;-0.76;81.49
22662;BME280;11497;52.222;21.246;2023-11-21T12:15:24;100180.13;;;-0.80;81.59
22662;BME280;11497;52.222;21.246;2023-11-21T12:17:53;100184.25;;;-0.82;82.88
22662;BME280;11497;52.222;21.246;2023-11-21T12:20:24;100176.16;;;-0.93;82.63
22662;BME280;11497;52.222;21.246;2023-11-21T12:23:00;100182.03;;;-0.94;83.68
22662;BME280;11497;52.222;21.246;2023-11-21T12:25:30;100184.25;;;-1.00;83.08
22662;BME280;11497;52.222;21.246;2023-11-21T12:28:02;100185.69;;;-1.05;82.88
22662;BME280;11497;52.222;21.246;2023-11-21T12:30:33;100188.03;;;-1.10;83.50
22662;BME280;11497;52.222;21.246;2023-11-21T12:33:03;100185.34;;;-1.13;83.55
22662;BME280;11497;52.222;21.246;2023-11-21T12:35:33;100193.56;;;-1.17;83.93
22662;BME280;11497;52.222;21.246;2023-11-21T12:38:03;100191.13;;;-1.16;83.92
22662;BME280;11497;52.222;21.246;2023-11-21T12:40:33;100201.28;;;-1.14;83.99
22662;BME280;11497;52.222;21.246;2023-11-21T12:43:01;100202.59;;;-1.22;83.29
22662;BME280;11497;52.222;21.246;2023-11-21T12:45:32;100208.44;;;-1.23;83.12
22662;BME280;11497;52.222;21.246;2023-11-21T12:48:05;100209.81;;;-1.12;83.00
22662;BME280;11497;52.222;21.246;2023-11-21T12:50:37;100208.44;;;-1.23;82.31
22662;BME280;11497;52.222;21.246;2023-11-21T12:53:11;100208.94;;;-1.13;82.23
22662;BME280;11497;52.222;21.246;2023-11-21T12:55:44;100203.66;;;-1.17;82.26
22662;BME280;11497;52.222;21.246;2023-11-21T12:58:19;100208.44;;;-1.05;82.37
22662;BME280;11497;52.222;21.246;2023-11-21T13:00:49;100213.56;;;-1.22;82.45
22662;BME280;11497;52.222;21.246;2023-11-21T13:03:17;100217.38;;;-1.12;82.10
22662;BME280;11497;52.222;21.246;2023-11-21T13:05:49;100213.72;;;-1.01;81.92
22662;BME280;11497;52.222;21.246;2023-11-21T13:08:23;100212.59;;;-1.24;82.07
22662;BME280;11497;52.222;21.246;2023-11-21T13:10:54;100221.34;;;-1.35;82.63
22662;BME280;11497;52.222;21.246;2023-11-21T13:13:29;100221.63;;;-1.29;83.02